sensor_id;sensor_type;location;lat;lon;timestamp;temperature;humidity
54158;DHT22;40065;49.894;10.358;2023-09-19T00:03:36;16.00;99.90
54158;DHT22;40065;49.894;10.358;2023-09-19T00:08:41;16.10;99.90
54158;DHT22;40065;49.894;10.358;2023-09-19T00:13:47;16.10;99.90
54158;DHT22;40065;49.894;10.358;2023-09-19T00:18:51;16.10;99.90
54158;DHT22;40065;49.894;10.358;2023-09-19T00:23:54;16.10;99.90
54158;DHT22;40065;49.894;10.358;2023-09-19T00:28:56;16.10;99.90
54158;DHT22;40065;49.894;10.358;2023-09-19T00:33:59;16.10;99.90
54158;DHT22;40065;49.894;10.358;2023-09-19T00:39:06;16.00;99.90
54158;DHT22;40065;49.894;10.358;2023-09-19T00:44:08;16.10;99.90
54158;DHT22;40065;49.894;10.358;2023-09-19T00:49:11;16.00;99.90
54158;DHT22;40065;49.894;10.358;2023-09-19T00:54:14;16.00;99.90
54158;DHT22;40065;49.894;10.358;2023-09-19T00:59:20;16.10;99.90
54158;DHT22;40065;49.894;10.358;2023-09-19T01:04:24;16.20;99.90
54158;DHT22;40065;49.894;10.358;2023-09-19T01:09:26;16.20;99.90
54158;DHT22;40065;49.894;10.358;2023-09-19T01:14:42;16.20;99.90
54158;DHT22;40065;49.894;10.358;2023-09-19T01:30:43;16.30;99.90
54158;DHT22;40065;49.894;10.358;2023-09-19T01:35:45;16.30;99.90
54158;DHT22;40065;49.894;10.358;2023-09-19T01:40:57;16.20;99.90
54158;DHT22;40065;49.894;10.358;2023-09-19T01:46:05;16.20;99.90
54158;DHT22;40065;49.894;10.358;2023-09-19T01:51:10;16.20;99.90
54158;DHT22;40065;49.894;10.358;2023-09-19T01:56:21;16.20;99.90
54158;DHT22;40065;49.894;10.358;2023-09-19T02:01:25;16.10;99.90
54158;DHT22;40065;49.894;10.358;2023-09-19T02:06:28;16.00;99.90
54158;DHT22;40065;49.894;10.358;2023-09-19T02:11:30;16.00;99.90
54158;DHT22;40065;49.894;10.358;2023-09-19T02:16:32;15.80;99.90
54158;DHT22;40065;49.894;10.358;2023-09-19T02:21:33;15.80;99.90
54158;DHT22;40065;49.894;10.358;2023-09-19T02:26:35;15.80;99.90
54158;DHT22;40065;49.894;10.358;2023-09-19T02:31:40;15.80;99.90
54158;DHT22;40065;49.894;10.358;2023-09-19T02:36:42;15.80;99.90
54158;DHT22;40065;49.894;10.358;2023-09-19T02:41:46;15.80;99.90
54158;DHT22;40065;49.894;10.358;2023-09-19T02:46:48;15.90;99.90
54158;DHT22;40065;49.894;10.358;2023-09-19T02:51:49;16.00;99.90
54158;DHT22;40065;49.894;10.358;2023-09-19T02:56:51;16.00;99.90
54158;DHT22;40065;49.894;10.358;2023-09-19T03:01:55;16.10;99.90
54158;DHT22;40065;49.894;10.358;2023-09-19T03:06:57;16.10;99.90
54158;DHT22;40065;49.894;10.358;2023-09-19T03:12:02;16.10;99.90
54158;DHT22;40065;49.894;10.358;2023-09-19T03:17:07;16.20;99.90
54158;DHT22;40065;49.894;10.358;2023-09-19T03:22:11;16.20;99.90
54158;DHT22;40065;49.894;10.358;2023-09-19T03:27:13;16.30;99.90
54158;DHT22;40065;49.894;10.358;2023-09-19T03:32:18;16.40;99.90
54158;DHT22;40065;49.894;10.358;2023-09-19T03:37:21;16.40;99.90
54158;DHT22;40065;49.894;10.358;2023-09-19T03:42:23;16.40;99.90
54158;DHT22;40065;49.894;10.358;2023-09-19T03:47:27;16.50;99.90
54158;DHT22;40065;49.894;10.358;2023-09-19T03:52:31;16.50;99.90
54158;DHT22;40065;49.894;10.358;2023-09-19T03:57:33;16.50;99.90
54158;DHT22;40065;49.894;10.358;2023-09-19T04:02:38;16.50;99.90
54158;DHT22;40065;49.894;10.358;2023-09-19T04:07:41;16.50;99.90
54158;DHT22;40065;49.894;10.358;2023-09-19T04:12:53;16.50;99.90
54158;DHT22;40065;49.894;10.358;2023-09-19T04:17:56;16.50;99.90
54158;DHT22;40065;49.894;10.358;2023-09-19T04:22:58;16.40;99.90
54158;DHT22;40065;49.894;10.358;2023-09-19T04:28:01;16.40;99.90
54158;DHT22;40065;49.894;10.358;2023-09-19T04:33:06;16.50;99.90
54158;DHT22;40065;49.894;10.358;2023-09-19T04:38:09;16.30;99.90
54158;DHT22;40065;49.894;10.358;2023-09-19T04:43:11;16.40;99.90
54158;DHT22;40065;49.894;10.358;2023-09-19T04:48:13;16.40;99.90
54158;DHT22;40065;49.894;10.358;2023-09-19T04:53:18;16.40;99.90
54158;DHT22;40065;49.894;10.358;2023-09-19T04:58:22;16.30;99.90
54158;DHT22;40065;49.894;10.358;2023-09-19T05:03:24;16.20;99.90
54158;DHT22;40065;49.894;10.358;2023-09-19T05:08:26;16.20;99.90
54158;DHT22;40065;49.894;10.358;2023-09-19T05:13:28;16.20;99.90
54158;DHT22;40065;49.894;10.358;2023-09-19T05:18:30;16.20;99.90
54158;DHT22;40065;49.894;10.358;2023-09-19T05:23:33;16.10;99.90
54158;DHT22;40065;49.894;10.358;2023-09-19T05:28:35;16.00;99.90
54158;DHT22;40065;49.894;10.358;2023-09-19T05:33:38;16.10;99.90
54158;DHT22;40065;49.894;10.358;2023-09-19T05:38:40;16.20;99.90
54158;DHT22;40065;49.894;10.358;2023-09-19T05:43:42;16.30;99.90
54158;DHT22;40065;49.894;10.358;2023-09-19T05:48:45;16.60;99.90
54158;DHT22;40065;49.894;10.358;2023-09-19T05:53:49;16.90;99.90
54158;DHT22;40065;49.894;10.358;2023-09-19T05:58:51;17.40;99.90
54158;DHT22;40065;49.894;10.358;2023-09-19T06:03:53;17.60;99.90
54158;DHT22;40065;49.894;10.358;2023-09-19T06:08:55;20.90;99.90
54158;DHT22;40065;49.894;10.358;2023-09-19T06:13:58;24.20;99.90
54158;DHT22;40065;49.894;10.358;2023-09-19T06:19:04;23.70;99.90
54158;DHT22;40065;49.894;10.358;2023-09-19T06:24:08;24.20;99.60
54158;DHT22;40065;49.894;10.358;2023-09-19T06:29:10;23.80;98.90
54158;DHT22;40065;49.894;10.358;2023-09-19T06:34:12;21.60;99.90
54158;DHT22;40065;49.894;10.358;2023-09-19T06:39:15;21.70;99.90
54158;DHT22;40065;49.894;10.358;2023-09-19T06:44:18;22.20;99.90
54158;DHT22;40065;49.894;10.358;2023-09-19T06:49:19;22.30;99.90
54158;DHT22;40065;49.894;10.358;2023-09-19T06:54:21;21.60;99.90
54158;DHT22;40065;49.894;10.358;2023-09-19T06:59:23;20.30;99.90
54158;DHT22;40065;49.894;10.358;2023-09-19T07:04:25;19.40;99.90
54158;DHT22;40065;49.894;10.358;2023-09-19T07:09:27;19.60;99.90
54158;DHT22;40065;49.894;10.358;2023-09-19T07:14:29;19.40;99.90
54158;DHT22;40065;49.894;10.358;2023-09-19T07:19:32;18.80;99.90
54158;DHT22;40065;49.894;10.358;2023-09-19T07:24:33;19.10;99.90
54158;DHT22;40065;49.894;10.358;2023-09-19T07:29:38;20.00;99.90
54158;DHT22;40065;49.894;10.358;2023-09-19T07:34:41;23.70;98.80
54158;DHT22;40065;49.894;10.358;2023-09-19T07:39:43;25.40;94.00
54158;DHT22;40065;49.894;10.358;2023-09-19T07:44:46;22.00;99.00
54158;DHT22;40065;49.894;10.358;2023-09-19T07:49:49;20.10;99.90
54158;DHT22;40065;49.894;10.358;2023-09-19T07:54:51;19.70;99.90
54158;DHT22;40065;49.894;10.358;2023-09-19T07:59:53;21.50;99.90
54158;DHT22;40065;49.894;10.358;2023-09-19T08:04:55;23.10;96.20
54158;DHT22;40065;49.894;10.358;2023-09-19T08:09:59;24.70;93.90
54158;DHT22;40065;49.894;10.358;2023-09-19T08:15:02;23.70;94.10
54158;DHT22;40065;49.894;10.358;2023-09-19T08:20:05;22.50;96.40
54158;DHT22;40065;49.894;10.358;2023-09-19T08:25:07;21.60;96.90
54158;DHT22;40065;49.894;10.358;2023-09-19T08:30:09;22.10;96.30
54158;DHT22;40065;49.894;10.358;2023-09-19T08:35:12;21.60;96.70
54158;DHT22;40065;49.894;10.358;2023-09-19T08:40:14;21.00;97.10
54158;DHT22;40065;49.894;10.358;2023-09-19T08:45:17;21.00;97.30
54158;DHT22;40065;49.894;10.358;2023-09-19T08:50:28;21.70;96.50
54158;DHT22;40065;49.894;10.358;2023-09-19T08:55:31;22.20;95.20
54158;DHT22;40065;49.894;10.358;2023-09-19T09:00:35;22.60;95.60
54158;DHT22;40065;49.894;10.358;2023-09-19T09:05:38;22.70;94.60
54158;DHT22;40065;49.894;10.358;2023-09-19T09:10:44;22.20;95.40
54158;DHT22;40065;49.894;10.358;2023-09-19T09:15:46;21.90;95.20
54158;DHT22;40065;49.894;10.358;2023-09-19T09:20:48;22.60;94.40
54158;DHT22;40065;49.894;10.358;2023-09-19T09:25:55;23.70;94.10
54158;DHT22;40065;49.894;10.358;2023-09-19T09:30:58;24.10;91.30
54158;DHT22;40065;49.894;10.358;2023-09-19T09:36:02;24.10;90.10
54158;DHT22;40065;49.894;10.358;2023-09-19T09:41:04;23.40;89.20
54158;DHT22;40065;49.894;10.358;2023-09-19T09:46:11;23.50;90.80
54158;DHT22;40065;49.894;10.358;2023-09-19T09:51:31;22.60;92.10
54158;DHT22;40065;49.894;10.358;2023-09-19T09:56:34;23.00;91.90
54158;DHT22;40065;49.894;10.358;2023-09-19T10:01:47;23.80;90.90
54158;DHT22;40065;49.894;10.358;2023-09-19T10:06:53;23.00;91.30
54158;DHT22;40065;49.894;10.358;2023-09-19T10:12:15;23.70;90.30
54158;DHT22;40065;49.894;10.358;2023-09-19T10:17:18;23.70;86.60
54158;DHT22;40065;49.894;10.358;2023-09-19T10:22:22;24.60;83.10
54158;DHT22;40065;49.894;10.358;2023-09-19T10:27:26;25.20;82.60
54158;DHT22;40065;49.894;10.358;2023-09-19T10:32:29;24.90;81.90
54158;DHT22;40065;49.894;10.358;2023-09-19T10:37:35;24.70;78.30
54158;DHT22;40065;49.894;10.358;2023-09-19T10:42:40;24.10;81.40
54158;DHT22;40065;49.894;10.358;2023-09-19T10:47:43;24.10;80.20
54158;DHT22;40065;49.894;10.358;2023-09-19T10:52:46;25.20;79.30
54158;DHT22;40065;49.894;10.358;2023-09-19T10:57:52;25.00;77.20
54158;DHT22;40065;49.894;10.358;2023-09-19T11:03:19;25.20;78.30
54158;DHT22;40065;49.894;10.358;2023-09-19T11:08:25;24.80;78.00
54158;DHT22;40065;49.894;10.358;2023-09-19T11:13:29;25.20;78.60
54158;DHT22;40065;49.894;10.358;2023-09-19T11:29:28;24.20;76.40
54158;DHT22;40065;49.894;10.358;2023-09-19T11:40:08;25.10;76.60
54158;DHT22;40065;49.894;10.358;2023-09-19T11:50:48;23.60;78.90
54158;DHT22;40065;49.894;10.358;2023-09-19T11:55:50;23.40;81.10
54158;DHT22;40065;49.894;10.358;2023-09-19T12:00:55;23.90;78.60
54158;DHT22;40065;49.894;10.358;2023-09-19T12:06:00;24.40;78.30
54158;DHT22;40065;49.894;10.358;2023-09-19T12:11:07;23.00;78.70
54158;DHT22;40065;49.894;10.358;2023-09-19T12:16:18;22.50;80.30
54158;DHT22;40065;49.894;10.358;2023-09-19T12:21:24;22.30;79.90
54158;DHT22;40065;49.894;10.358;2023-09-19T12:26:27;22.90;81.20
54158;DHT22;40065;49.894;10.358;2023-09-19T12:31:30;22.90;81.70
54158;DHT22;40065;49.894;10.358;2023-09-19T12:36:37;22.70;80.80
54158;DHT22;40065;49.894;10.358;2023-09-19T12:41:41;22.40;82.50
54158;DHT22;40065;49.894;10.358;2023-09-19T12:46:43;23.50;79.40
54158;DHT22;40065;49.894;10.358;2023-09-19T12:51:47;23.30;79.50
54158;DHT22;40065;49.894;10.358;2023-09-19T12:56:49;23.40;76.20
54158;DHT22;40065;49.894;10.358;2023-09-19T13:02:03;22.80;77.10
54158;DHT22;40065;49.894;10.358;2023-09-19T13:07:06;23.00;77.50
54158;DHT22;40065;49.894;10.358;2023-09-19T13:17:46;24.20;77.20
54158;DHT22;40065;49.894;10.358;2023-09-19T13:22:48;24.70;74.70
54158;DHT22;40065;49.894;10.358;2023-09-19T13:27:54;24.90;74.70
54158;DHT22;40065;49.894;10.358;2023-09-19T13:33:08;24.60;74.60
54158;DHT22;40065;49.894;10.358;2023-09-19T13:38:11;25.20;73.30
54158;DHT22;40065;49.894;10.358;2023-09-19T13:43:14;25.20;73.80
54158;DHT22;40065;49.894;10.358;2023-09-19T13:48:16;24.40;75.00
54158;DHT22;40065;49.894;10.358;2023-09-19T13:53:22;25.10;73.40
54158;DHT22;40065;49.894;10.358;2023-09-19T13:58:24;24.70;70.60
54158;DHT22;40065;49.894;10.358;2023-09-19T14:03:26;24.80;70.80
54158;DHT22;40065;49.894;10.358;2023-09-19T14:08:30;24.70;71.40
54158;DHT22;40065;49.894;10.358;2023-09-19T14:13:32;24.10;70.10
54158;DHT22;40065;49.894;10.358;2023-09-19T14:18:34;23.90;71.30
54158;DHT22;40065;49.894;10.358;2023-09-19T14:23:39;24.20;72.90
54158;DHT22;40065;49.894;10.358;2023-09-19T14:28:41;24.40;72.20
54158;DHT22;40065;49.894;10.358;2023-09-19T14:33:43;24.20;72.40
54158;DHT22;40065;49.894;10.358;2023-09-19T14:38:45;24.30;72.30
54158;DHT22;40065;49.894;10.358;2023-09-19T14:43:47;24.00;72.50
54158;DHT22;40065;49.894;10.358;2023-09-19T14:48:50;23.70;73.10
54158;DHT22;40065;49.894;10.358;2023-09-19T14:53:53;23.30;73.30
54158;DHT22;40065;49.894;10.358;2023-09-19T14:58:54;23.30;73.80
54158;DHT22;40065;49.894;10.358;2023-09-19T15:03:56;23.60;72.80
54158;DHT22;40065;49.894;10.358;2023-09-19T15:08:59;24.20;73.20
54158;DHT22;40065;49.894;10.358;2023-09-19T15:14:00;24.60;72.40
54158;DHT22;40065;49.894;10.358;2023-09-19T15:19:04;24.10;73.90
54158;DHT22;40065;49.894;10.358;2023-09-19T15:24:07;24.10;73.50
54158;DHT22;40065;49.894;10.358;2023-09-19T15:29:11;23.50;74.60
54158;DHT22;40065;49.894;10.358;2023-09-19T15:34:15;22.60;76.70
54158;DHT22;40065;49.894;10.358;2023-09-19T15:39:18;21.90;78.20
54158;DHT22;40065;49.894;10.358;2023-09-19T15:44:20;21.70;79.70
54158;DHT22;40065;49.894;10.358;2023-09-19T15:49:22;21.60;79.50
54158;DHT22;40065;49.894;10.358;2023-09-19T15:54:25;21.50;79.90
54158;DHT22;40065;49.894;10.358;2023-09-19T15:59:27;21.50;80.50
54158;DHT22;40065;49.894;10.358;2023-09-19T16:04:31;21.40;81.20
54158;DHT22;40065;49.894;10.358;2023-09-19T16:09:35;21.40;81.60
54158;DHT22;40065;49.894;10.358;2023-09-19T16:14:37;21.20;82.50
54158;DHT22;40065;49.894;10.358;2023-09-19T16:19:39;21.00;83.30
54158;DHT22;40065;49.894;10.358;2023-09-19T16:24:41;20.80;84.00
54158;DHT22;40065;49.894;10.358;2023-09-19T16:29:43;20.70;84.70
54158;DHT22;40065;49.894;10.358;2023-09-19T16:34:46;20.50;86.00
54158;DHT22;40065;49.894;10.358;2023-09-19T16:39:48;20.40;86.20
54158;DHT22;40065;49.894;10.358;2023-09-19T16:44:49;20.20;87.00
54158;DHT22;40065;49.894;10.358;2023-09-19T16:49:52;20.10;88.20
54158;DHT22;40065;49.894;10.358;2023-09-19T16:54:54;20.00;88.90
54158;DHT22;40065;49.894;10.358;2023-09-19T16:59:56;19.80;90.00
54158;DHT22;40065;49.894;10.358;2023-09-19T17:04:58;19.60;90.40
54158;DHT22;40065;49.894;10.358;2023-09-19T17:10:00;19.60;90.40
54158;DHT22;40065;49.894;10.358;2023-09-19T17:15:03;19.50;90.70
54158;DHT22;40065;49.894;10.358;2023-09-19T17:20:06;19.50;90.90
54158;DHT22;40065;49.894;10.358;2023-09-19T17:25:08;19.40;91.30
54158;DHT22;40065;49.894;10.358;2023-09-19T17:30:11;19.10;91.80
54158;DHT22;40065;49.894;10.358;2023-09-19T17:35:15;19.00;92.30
54158;DHT22;40065;49.894;10.358;2023-09-19T17:40:19;18.80;92.60
54158;DHT22;40065;49.894;10.358;2023-09-19T17:45:21;18.60;93.30
54158;DHT22;40065;49.894;10.358;2023-09-19T17:50:23;18.60;93.50
54158;DHT22;40065;49.894;10.358;2023-09-19T17:55:25;18.40;93.80
54158;DHT22;40065;49.894;10.358;2023-09-19T18:00:27;18.30;94.20
54158;DHT22;40065;49.894;10.358;2023-09-19T18:05:29;18.30;94.60
54158;DHT22;40065;49.894;10.358;2023-09-19T18:10:31;18.30;94.70
54158;DHT22;40065;49.894;10.358;2023-09-19T18:15:36;18.10;95.00
54158;DHT22;40065;49.894;10.358;2023-09-19T18:20:39;18.20;95.30
54158;DHT22;40065;49.894;10.358;2023-09-19T18:25:41;18.10;95.50
54158;DHT22;40065;49.894;10.358;2023-09-19T18:30:43;18.10;95.50
54158;DHT22;40065;49.894;10.358;2023-09-19T18:35:45;18.00;96.00
54158;DHT22;40065;49.894;10.358;2023-09-19T18:40:47;17.90;96.30
54158;DHT22;40065;49.894;10.358;2023-09-19T18:45:56;17.90;96.60
54158;DHT22;40065;49.894;10.358;2023-09-19T18:51:07;17.80;97.00
54158;DHT22;40065;49.894;10.358;2023-09-19T18:56:11;17.50;97.70
54158;DHT22;40065;49.894;10.358;2023-09-19T19:01:16;17.10;98.50
54158;DHT22;40065;49.894;10.358;2023-09-19T19:06:18;16.90;99.10
54158;DHT22;40065;49.894;10.358;2023-09-19T19:11:20;16.90;99.50
54158;DHT22;40065;49.894;10.358;2023-09-19T19:16:23;16.80;99.90
54158;DHT22;40065;49.894;10.358;2023-09-19T19:21:28;16.80;99.90
54158;DHT22;40065;49.894;10.358;2023-09-19T19:26:31;16.80;99.90
54158;DHT22;40065;49.894;10.358;2023-09-19T19:31:33;16.80;99.90
54158;DHT22;40065;49.894;10.358;2023-09-19T19:36:37;16.90;99.90
54158;DHT22;40065;49.894;10.358;2023-09-19T19:41:39;17.00;99.90
54158;DHT22;40065;49.894;10.358;2023-09-19T19:46:41;17.10;99.90
54158;DHT22;40065;49.894;10.358;2023-09-19T19:51:43;17.10;99.90
54158;DHT22;40065;49.894;10.358;2023-09-19T19:56:46;16.90;99.90
54158;DHT22;40065;49.894;10.358;2023-09-19T20:01:48;16.80;99.90
54158;DHT22;40065;49.894;10.358;2023-09-19T20:06:51;16.60;99.90
54158;DHT22;40065;49.894;10.358;2023-09-19T20:11:53;16.30;99.90
54158;DHT22;40065;49.894;10.358;2023-09-19T20:16:56;16.30;99.90
54158;DHT22;40065;49.894;10.358;2023-09-19T20:22:00;16.20;99.90
54158;DHT22;40065;49.894;10.358;2023-09-19T20:27:08;16.30;99.90
54158;DHT22;40065;49.894;10.358;2023-09-19T20:32:10;16.40;99.90
54158;DHT22;40065;49.894;10.358;2023-09-19T20:37:13;16.70;99.90
54158;DHT22;40065;49.894;10.358;2023-09-19T20:42:15;16.90;99.90
54158;DHT22;40065;49.894;10.358;2023-09-19T20:47:18;16.80;99.90
54158;DHT22;40065;49.894;10.358;2023-09-19T20:52:20;16.80;99.90
54158;DHT22;40065;49.894;10.358;2023-09-19T20:57:22;16.70;99.90
54158;DHT22;40065;49.894;10.358;2023-09-19T21:02:23;16.50;99.90
54158;DHT22;40065;49.894;10.358;2023-09-19T21:07:26;16.50;99.90
54158;DHT22;40065;49.894;10.358;2023-09-19T21:12:31;16.60;99.90
54158;DHT22;40065;49.894;10.358;2023-09-19T21:17:35;16.50;99.90
54158;DHT22;40065;49.894;10.358;2023-09-19T21:22:45;16.50;99.90
54158;DHT22;40065;49.894;10.358;2023-09-19T21:27:46;16.50;99.90
54158;DHT22;40065;49.894;10.358;2023-09-19T21:32:48;16.50;99.90
54158;DHT22;40065;49.894;10.358;2023-09-19T21:37:51;16.40;99.90
54158;DHT22;40065;49.894;10.358;2023-09-19T21:42:53;16.20;99.90
54158;DHT22;40065;49.894;10.358;2023-09-19T21:47:54;16.00;99.90
54158;DHT22;40065;49.894;10.358;2023-09-19T21:52:57;15.90;99.90
54158;DHT22;40065;49.894;10.358;2023-09-19T21:58:02;15.90;99.90
54158;DHT22;40065;49.894;10.358;2023-09-19T22:03:04;15.90;99.90
54158;DHT22;40065;49.894;10.358;2023-09-19T22:08:11;16.00;99.90
54158;DHT22;40065;49.894;10.358;2023-09-19T22:13:15;16.00;99.90
54158;DHT22;40065;49.894;10.358;2023-09-19T22:18:22;16.00;99.90
54158;DHT22;40065;49.894;10.358;2023-09-19T22:23:25;15.90;99.90
54158;DHT22;40065;49.894;10.358;2023-09-19T22:28:35;15.90;99.90
54158;DHT22;40065;49.894;10.358;2023-09-19T22:33:38;15.80;99.90
54158;DHT22;40065;49.894;10.358;2023-09-19T22:38:40;15.80;99.90
54158;DHT22;40065;49.894;10.358;2023-09-19T22:43:43;15.90;99.90
54158;DHT22;40065;49.894;10.358;2023-09-19T22:48:50;15.90;99.90
54158;DHT22;40065;49.894;10.358;2023-09-19T22:53:52;16.10;99.90
54158;DHT22;40065;49.894;10.358;2023-09-19T22:58:59;16.10;99.90
54158;DHT22;40065;49.894;10.358;2023-09-19T23:04:03;16.10;99.90
54158;DHT22;40065;49.894;10.358;2023-09-19T23:09:18;16.10;99.90
54158;DHT22;40065;49.894;10.358;2023-09-19T23:14:23;16.00;99.90
54158;DHT22;40065;49.894;10.358;2023-09-19T23:19:36;15.80;99.90
54158;DHT22;40065;49.894;10.358;2023-09-19T23:24:39;15.70;99.90
54158;DHT22;40065;49.894;10.358;2023-09-19T23:29:43;15.60;99.90
54158;DHT22;40065;49.894;10.358;2023-09-19T23:34:45;15.60;99.90
54158;DHT22;40065;49.894;10.358;2023-09-19T23:39:49;15.50;99.90
54158;DHT22;40065;49.894;10.358;2023-09-19T23:44:53;15.60;99.90
54158;DHT22;40065;49.894;10.358;2023-09-19T23:49:56;15.80;99.90
54158;DHT22;40065;49.894;10.358;2023-09-19T23:54:59;16.00;99.90
